sensor_id;sensor_type;location;lat;lon;timestamp;pressure;altitude;pressure_sealevel;temperature;humidity
53011;BME280;42803;55.762;38.084;2022-10-26T00:01:38;100134.03;;;-3.92;100.00
53011;BME280;42803;55.762;38.084;2022-10-26T00:04:07;100123.34;;;-3.89;100.00
53011;BME280;42803;55.762;38.084;2022-10-26T00:06:36;100132.19;;;-3.93;100.00
53011;BME280;42803;55.762;38.084;2022-10-26T00:09:05;100136.34;;;-3.93;100.00
53011;BME280;42803;55.762;38.084;2022-10-26T00:11:35;100134.13;;;-3.79;100.00
53011;BME280;42803;55.762;38.084;2022-10-26T00:14:04;100126.81;;;-3.88;100.00
53011;BME280;42803;55.762;38.084;2022-10-26T00:16:33;100133.09;;;-3.92;100.00
53011;BME280;42803;55.762;38.084;2022-10-26T00:19:03;100129.41;;;-3.94;100.00
53011;BME280;42803;55.762;38.084;2022-10-26T00:21:33;100124.75;;;-3.91;100.00
53011;BME280;42803;55.762;38.084;2022-10-26T00:24:02;100119.09;;;-3.83;100.00
53011;BME280;42803;55.762;38.084;2022-10-26T00:26:32;100127.28;;;-3.91;100.00
53011;BME280;42803;55.762;38.084;2022-10-26T00:29:01;100126.03;;;-4.06;100.00
53011;BME280;42803;55.762;38.084;2022-10-26T00:31:30;100127.44;;;-4.08;100.00
53011;BME280;42803;55.762;38.084;2022-10-26T00:34:06;100122.66;;;-4.18;100.00
53011;BME280;42803;55.762;38.084;2022-10-26T00:36:35;100123.84;;;-4.21;100.00
53011;BME280;42803;55.762;38.084;2022-10-26T00:39:04;100130.47;;;-4.10;100.00
53011;BME280;42803;55.762;38.084;2022-10-26T00:41:33;100120.44;;;-4.03;100.00
53011;BME280;42803;55.762;38.084;2022-10-26T00:47:05;100119.28;;;-4.05;100.00
53011;BME280;42803;55.762;38.084;2022-10-26T00:49:37;100112.53;;;-3.99;100.00
53011;BME280;42803;55.762;38.084;2022-10-26T00:52:09;100114.63;;;-4.02;100.00
53011;BME280;42803;55.762;38.084;2022-10-26T00:54:40;100106.78;;;-4.04;100.00
53011;BME280;42803;55.762;38.084;2022-10-26T00:57:10;100116.06;;;-4.04;100.00
53011;BME280;42803;55.762;38.084;2022-10-26T00:59:40;100114.16;;;-4.00;100.00
53011;BME280;42803;55.762;38.084;2022-10-26T01:02:10;100114.38;;;-3.98;100.00
53011;BME280;42803;55.762;38.084;2022-10-26T01:04:44;100108.41;;;-4.04;100.00
53011;BME280;42803;55.762;38.084;2022-10-26T01:07:14;100111.66;;;-4.05;100.00
53011;BME280;42803;55.762;38.084;2022-10-26T01:09:44;100114.63;;;-4.02;100.00
53011;BME280;42803;55.762;38.084;2022-10-26T01:12:13;100102.63;;;-4.09;100.00
53011;BME280;42803;55.762;38.084;2022-10-26T01:14:42;100098.34;;;-3.97;100.00
53011;BME280;42803;55.762;38.084;2022-10-26T01:17:24;100116.47;;;-4.01;100.00
53011;BME280;42803;55.762;38.084;2022-10-26T01:20:33;100109.19;;;-4.17;100.00
53011;BME280;42803;55.762;38.084;2022-10-26T01:23:11;100111.97;;;-4.15;100.00
53011;BME280;42803;55.762;38.084;2022-10-26T01:26:07;100102.69;;;-4.14;100.00
53011;BME280;42803;55.762;38.084;2022-10-26T01:29:05;100095.50;;;-4.11;100.00
53011;BME280;42803;55.762;38.084;2022-10-26T01:31:43;100102.59;;;-4.03;100.00
53011;BME280;42803;55.762;38.084;2022-10-26T01:34:21;100103.16;;;-4.11;100.00
53011;BME280;42803;55.762;38.084;2022-10-26T01:36:54;100104.28;;;-4.09;100.00
53011;BME280;42803;55.762;38.084;2022-10-26T01:39:29;100100.53;;;-4.06;100.00
53011;BME280;42803;55.762;38.084;2022-10-26T01:42:04;100100.16;;;-3.90;100.00
53011;BME280;42803;55.762;38.084;2022-10-26T01:44:36;100103.88;;;-3.88;100.00
53011;BME280;42803;55.762;38.084;2022-10-26T01:47:13;100101.34;;;-3.94;100.00
53011;BME280;42803;55.762;38.084;2022-10-26T01:49:48;100105.59;;;-4.00;100.00
53011;BME280;42803;55.762;38.084;2022-10-26T01:52:18;100094.69;;;-3.99;100.00
53011;BME280;42803;55.762;38.084;2022-10-26T01:54:48;100094.59;;;-3.88;100.00
53011;BME280;42803;55.762;38.084;2022-10-26T01:57:19;100095.88;;;-3.79;100.00
53011;BME280;42803;55.762;38.084;2022-10-26T02:00:07;100089.47;;;-3.88;100.00
53011;BME280;42803;55.762;38.084;2022-10-26T02:02:55;100087.56;;;-3.83;100.00
53011;BME280;42803;55.762;38.084;2022-10-26T02:05:38;100085.66;;;-3.79;100.00
53011;BME280;42803;55.762;38.084;2022-10-26T02:08:26;100081.28;;;-3.80;100.00
53011;BME280;42803;55.762;38.084;2022-10-26T02:11:10;100091.66;;;-3.73;100.00
53011;BME280;42803;55.762;38.084;2022-10-26T02:13:46;100094.47;;;-3.77;100.00
53011;BME280;42803;55.762;38.084;2022-10-26T02:16:23;100097.03;;;-3.77;100.00
53011;BME280;42803;55.762;38.084;2022-10-26T02:19:01;100105.44;;;-3.83;100.00
53011;BME280;42803;55.762;38.084;2022-10-26T02:21:34;100101.41;;;-3.76;100.00
53011;BME280;42803;55.762;38.084;2022-10-26T02:26:36;100098.69;;;-3.83;100.00
53011;BME280;42803;55.762;38.084;2022-10-26T02:29:10;100095.88;;;-3.79;100.00
53011;BME280;42803;55.762;38.084;2022-10-26T02:31:41;100088.00;;;-3.80;100.00
53011;BME280;42803;55.762;38.084;2022-10-26T02:34:16;100098.16;;;-3.75;100.00
53011;BME280;42803;55.762;38.084;2022-10-26T02:36:47;100098.22;;;-3.80;100.00
53011;BME280;42803;55.762;38.084;2022-10-26T02:39:18;100097.28;;;-3.81;100.00
53011;BME280;42803;55.762;38.084;2022-10-26T02:41:49;100099.13;;;-3.80;100.00
53011;BME280;42803;55.762;38.084;2022-10-26T02:44:23;100114.13;;;-3.70;100.00
53011;BME280;42803;55.762;38.084;2022-10-26T02:46:54;100111.28;;;-3.66;100.00
53011;BME280;42803;55.762;38.084;2022-10-26T02:49:30;100109.03;;;-3.70;100.00
53011;BME280;42803;55.762;38.084;2022-10-26T02:52:01;100104.84;;;-3.70;100.00
53011;BME280;42803;55.762;38.084;2022-10-26T02:54:39;100104.28;;;-3.61;100.00
53011;BME280;42803;55.762;38.084;2022-10-26T02:57:12;100099.75;;;-3.51;100.00
53011;BME280;42803;55.762;38.084;2022-10-26T02:59:45;100102.44;;;-3.44;100.00
53011;BME280;42803;55.762;38.084;2022-10-26T03:02:16;100108.28;;;-3.27;100.00
53011;BME280;42803;55.762;38.084;2022-10-26T03:04:50;100106.38;;;-3.22;100.00
53011;BME280;42803;55.762;38.084;2022-10-26T03:07:21;100109.56;;;-3.17;100.00
53011;BME280;42803;55.762;38.084;2022-10-26T03:09:50;100101.13;;;-3.11;100.00
53011;BME280;42803;55.762;38.084;2022-10-26T03:12:20;100103.97;;;-3.15;100.00
53011;BME280;42803;55.762;38.084;2022-10-26T03:14:49;100102.47;;;-3.07;100.00
53011;BME280;42803;55.762;38.084;2022-10-26T03:17:18;100103.09;;;-3.03;100.00
53011;BME280;42803;55.762;38.084;2022-10-26T03:19:47;100097.94;;;-2.97;100.00
53011;BME280;42803;55.762;38.084;2022-10-26T03:22:17;100095.41;;;-2.97;100.00
53011;BME280;42803;55.762;38.084;2022-10-26T03:24:47;100092.41;;;-3.00;100.00
53011;BME280;42803;55.762;38.084;2022-10-26T03:27:16;100088.13;;;-2.94;100.00
53011;BME280;42803;55.762;38.084;2022-10-26T03:29:45;100081.75;;;-2.85;100.00
53011;BME280;42803;55.762;38.084;2022-10-26T03:32:15;100088.53;;;-2.73;100.00
53011;BME280;42803;55.762;38.084;2022-10-26T03:34:44;100091.06;;;-2.85;100.00
53011;BME280;42803;55.762;38.084;2022-10-26T03:37:13;100093.91;;;-2.89;100.00
53011;BME280;42803;55.762;38.084;2022-10-26T03:39:45;100094.38;;;-2.92;100.00
53011;BME280;42803;55.762;38.084;2022-10-26T03:42:14;100090.69;;;-2.94;100.00
53011;BME280;42803;55.762;38.084;2022-10-26T03:44:45;100087.59;;;-3.04;100.00
53011;BME280;42803;55.762;38.084;2022-10-26T03:47:14;100095.44;;;-3.03;100.00
53011;BME280;42803;55.762;38.084;2022-10-26T03:49:43;100095.78;;;-2.94;100.00
53011;BME280;42803;55.762;38.084;2022-10-26T03:52:12;100095.41;;;-2.97;100.00
53011;BME280;42803;55.762;38.084;2022-10-26T03:54:41;100093.94;;;-2.95;100.00
53011;BME280;42803;55.762;38.084;2022-10-26T03:57:12;100095.94;;;-2.87;100.00
53011;BME280;42803;55.762;38.084;2022-10-26T03:59:41;100094.22;;;-2.81;100.00
53011;BME280;42803;55.762;38.084;2022-10-26T04:02:13;100087.00;;;-2.78;100.00
53011;BME280;42803;55.762;38.084;2022-10-26T04:04:42;100094.84;;;-2.76;100.00
53011;BME280;42803;55.762;38.084;2022-10-26T04:07:12;100088.66;;;-2.65;100.00
53011;BME280;42803;55.762;38.084;2022-10-26T04:09:41;100091.66;;;-2.62;100.00
53011;BME280;42803;55.762;38.084;2022-10-26T04:12:12;100097.69;;;-2.62;100.00
53011;BME280;42803;55.762;38.084;2022-10-26T04:14:41;100098.44;;;-2.50;100.00
53011;BME280;42803;55.762;38.084;2022-10-26T04:17:11;100089.06;;;-2.44;100.00
53011;BME280;42803;55.762;38.084;2022-10-26T04:19:40;100088.94;;;-2.38;100.00
53011;BME280;42803;55.762;38.084;2022-10-26T04:22:09;100094.38;;;-2.30;100.00
53011;BME280;42803;55.762;38.084;2022-10-26T04:24:38;100090.69;;;-1.75;100.00
53011;BME280;42803;55.762;38.084;2022-10-26T04:27:07;100088.50;;;-1.47;100.00
53011;BME280;42803;55.762;38.084;2022-10-26T04:29:38;100089.56;;;-1.19;100.00
53011;BME280;42803;55.762;38.084;2022-10-26T04:32:09;100087.59;;;-0.82;100.00
53011;BME280;42803;55.762;38.084;2022-10-26T04:34:38;100079.88;;;-0.49;100.00
53011;BME280;42803;55.762;38.084;2022-10-26T04:37:08;100075.06;;;-0.33;100.00
53011;BME280;42803;55.762;38.084;2022-10-26T04:39:37;100083.63;;;-0.40;100.00
53011;BME280;42803;55.762;38.084;2022-10-26T04:42:07;100080.47;;;0.03;100.00
53011;BME280;42803;55.762;38.084;2022-10-26T04:44:41;100083.88;;;-0.11;100.00
53011;BME280;42803;55.762;38.084;2022-10-26T04:47:11;100077.50;;;-0.01;100.00
53011;BME280;42803;55.762;38.084;2022-10-26T04:49:40;100082.78;;;-0.06;100.00
53011;BME280;42803;55.762;38.084;2022-10-26T04:52:10;100085.06;;;0.32;100.00
53011;BME280;42803;55.762;38.084;2022-10-26T04:54:39;100075.81;;;0.47;100.00
53011;BME280;42803;55.762;38.084;2022-10-26T04:57:09;100069.66;;;0.32;100.00
53011;BME280;42803;55.762;38.084;2022-10-26T04:59:38;100077.31;;;-0.02;100.00
53011;BME280;42803;55.762;38.084;2022-10-26T05:02:09;100070.22;;;-0.44;100.00
53011;BME280;42803;55.762;38.084;2022-10-26T05:04:38;100073.13;;;-0.68;100.00
53011;BME280;42803;55.762;38.084;2022-10-26T05:07:08;100067.19;;;-0.75;100.00
53011;BME280;42803;55.762;38.084;2022-10-26T05:09:37;100088.88;;;-0.65;100.00
53011;BME280;42803;55.762;38.084;2022-10-26T05:12:06;100091.06;;;-0.68;100.00
53011;BME280;42803;55.762;38.084;2022-10-26T05:14:36;100073.38;;;-0.60;100.00
53011;BME280;42803;55.762;38.084;2022-10-26T05:17:06;100085.47;;;-0.59;100.00
53011;BME280;42803;55.762;38.084;2022-10-26T05:19:37;100098.41;;;-0.64;100.00
53011;BME280;42803;55.762;38.084;2022-10-26T05:22:06;100099.84;;;-0.66;100.00
53011;BME280;42803;55.762;38.084;2022-10-26T05:24:36;100105.56;;;-0.62;100.00
53011;BME280;42803;55.762;38.084;2022-10-26T05:27:06;100098.78;;;-0.61;100.00
53011;BME280;42803;55.762;38.084;2022-10-26T05:29:36;100081.16;;;-0.65;100.00
53011;BME280;42803;55.762;38.084;2022-10-26T05:32:05;100077.25;;;-0.56;100.00
53011;BME280;42803;55.762;38.084;2022-10-26T05:34:34;100075.53;;;-0.43;100.00
53011;BME280;42803;55.762;38.084;2022-10-26T05:37:10;100079.63;;;-0.38;100.00
53011;BME280;42803;55.762;38.084;2022-10-26T05:39:40;100070.84;;;-0.33;100.00
53011;BME280;42803;55.762;38.084;2022-10-26T05:42:10;100063.34;;;-0.31;100.00
53011;BME280;42803;55.762;38.084;2022-10-26T05:44:40;100056.28;;;-0.19;100.00
53011;BME280;42803;55.762;38.084;2022-10-26T05:47:10;100061.09;;;-0.15;100.00
53011;BME280;42803;55.762;38.084;2022-10-26T05:49:39;100070.06;;;0.08;100.00
53011;BME280;42803;55.762;38.084;2022-10-26T05:52:10;100067.22;;;0.19;100.00
53011;BME280;42803;55.762;38.084;2022-10-26T05:54:40;100067.88;;;0.11;100.00
53011;BME280;42803;55.762;38.084;2022-10-26T05:57:10;100080.41;;;0.15;100.00
53011;BME280;42803;55.762;38.084;2022-10-26T05:59:41;100077.94;;;0.10;100.00
53011;BME280;42803;55.762;38.084;2022-10-26T06:02:16;100083.75;;;0.29;100.00
53011;BME280;42803;55.762;38.084;2022-10-26T06:04:47;100073.31;;;0.34;100.00
53011;BME280;42803;55.762;38.084;2022-10-26T06:07:38;100080.94;;;0.47;100.00
53011;BME280;42803;55.762;38.084;2022-10-26T06:10:19;100088.69;;;0.54;100.00
53011;BME280;42803;55.762;38.084;2022-10-26T06:12:49;100086.19;;;0.76;100.00
53011;BME280;42803;55.762;38.084;2022-10-26T06:15:20;100084.19;;;0.73;99.92
53011;BME280;42803;55.762;38.084;2022-10-26T06:17:58;100089.72;;;0.83;99.65
53011;BME280;42803;55.762;38.084;2022-10-26T06:20:42;100098.16;;;0.82;98.79
53011;BME280;42803;55.762;38.084;2022-10-26T06:23:48;100093.97;;;0.90;98.93
53011;BME280;42803;55.762;38.084;2022-10-26T06:26:31;100097.31;;;0.96;98.79
53011;BME280;42803;55.762;38.084;2022-10-26T06:29:15;100101.94;;;1.13;98.56
53011;BME280;42803;55.762;38.084;2022-10-26T06:31:47;100094.97;;;1.12;98.04
53011;BME280;42803;55.762;38.084;2022-10-26T06:34:25;100095.56;;;1.24;98.02
53011;BME280;42803;55.762;38.084;2022-10-26T06:36:56;100101.41;;;1.30;97.53
53011;BME280;42803;55.762;38.084;2022-10-26T06:39:30;100096.66;;;1.33;96.88
53011;BME280;42803;55.762;38.084;2022-10-26T06:42:03;100108.09;;;1.42;96.75
53011;BME280;42803;55.762;38.084;2022-10-26T06:44:35;100106.59;;;1.44;96.64
53011;BME280;42803;55.762;38.084;2022-10-26T06:47:06;100099.66;;;1.57;96.32
53011;BME280;42803;55.762;38.084;2022-10-26T06:49:41;100092.47;;;1.48;96.56
53011;BME280;42803;55.762;38.084;2022-10-26T06:52:22;100087.16;;;1.67;96.72
53011;BME280;42803;55.762;38.084;2022-10-26T06:55:00;100094.88;;;1.60;96.68
53011;BME280;42803;55.762;38.084;2022-10-26T06:57:33;100093.03;;;2.02;96.95
53011;BME280;42803;55.762;38.084;2022-10-26T07:00:07;100095.81;;;2.11;95.25
53011;BME280;42803;55.762;38.084;2022-10-26T07:02:37;100086.78;;;2.07;93.72
53011;BME280;42803;55.762;38.084;2022-10-26T07:05:07;100085.31;;;2.09;93.47
53011;BME280;42803;55.762;38.084;2022-10-26T07:07:40;100092.47;;;2.12;93.81
53011;BME280;42803;55.762;38.084;2022-10-26T07:10:13;100092.09;;;2.23;93.53
53011;BME280;42803;55.762;38.084;2022-10-26T07:12:42;100089.50;;;2.37;93.02
53011;BME280;42803;55.762;38.084;2022-10-26T07:15:12;100096.63;;;2.61;92.70
53011;BME280;42803;55.762;38.084;2022-10-26T07:17:42;100087.13;;;2.25;92.00
53011;BME280;42803;55.762;38.084;2022-10-26T07:20:13;100098.53;;;2.19;92.16
53011;BME280;42803;55.762;38.084;2022-10-26T07:22:42;100096.72;;;2.18;93.29
53011;BME280;42803;55.762;38.084;2022-10-26T07:25:12;100097.03;;;2.36;92.26
53011;BME280;42803;55.762;38.084;2022-10-26T07:27:42;100094.66;;;2.44;91.38
53011;BME280;42803;55.762;38.084;2022-10-26T07:34:56;100089.50;;;2.37;90.74
53011;BME280;42803;55.762;38.084;2022-10-26T07:43:43;100095.38;;;3.02;88.96
53011;BME280;42803;55.762;38.084;2022-10-26T07:47:18;100094.63;;;2.96;88.93
53011;BME280;42803;55.762;38.084;2022-10-26T07:50:12;100095.66;;;3.12;88.64
53011;BME280;42803;55.762;38.084;2022-10-26T07:52:44;100093.34;;;3.00;87.78
53011;BME280;42803;55.762;38.084;2022-10-26T07:55:24;100094.25;;;3.00;88.85
53011;BME280;42803;55.762;38.084;2022-10-26T07:58:11;100094.28;;;2.93;88.79
53011;BME280;42803;55.762;38.084;2022-10-26T08:01:43;100097.78;;;2.93;88.71
53011;BME280;42803;55.762;38.084;2022-10-26T08:04:55;100092.47;;;2.85;88.60
53011;BME280;42803;55.762;38.084;2022-10-26T08:08:28;100092.34;;;2.76;89.19
53011;BME280;42803;55.762;38.084;2022-10-26T08:12:57;100098.75;;;2.80;89.31
53011;BME280;42803;55.762;38.084;2022-10-26T08:16:56;100102.94;;;2.93;89.35
53011;BME280;42803;55.762;38.084;2022-10-26T08:19:56;100104.94;;;2.96;89.20
53011;BME280;42803;55.762;38.084;2022-10-26T08:23:20;100094.81;;;2.98;89.13
53011;BME280;42803;55.762;38.084;2022-10-26T08:26:51;100091.84;;;3.62;87.72
53011;BME280;42803;55.762;38.084;2022-10-26T08:38:58;100089.84;;;4.44;85.01
53011;BME280;42803;55.762;38.084;2022-10-26T08:42:09;100095.34;;;4.31;84.56
53011;BME280;42803;55.762;38.084;2022-10-26T08:46:01;100082.09;;;4.28;87.38
53011;BME280;42803;55.762;38.084;2022-10-26T08:49:08;100090.84;;;4.37;86.61
53011;BME280;42803;55.762;38.084;2022-10-26T08:52:12;100089.91;;;4.37;85.26
53011;BME280;42803;55.762;38.084;2022-10-26T08:55:00;100087.19;;;4.51;84.75
53011;BME280;42803;55.762;38.084;2022-10-26T08:58:11;100088.19;;;4.60;84.51
53011;BME280;42803;55.762;38.084;2022-10-26T09:00:50;100086.00;;;4.88;82.36
53011;BME280;42803;55.762;38.084;2022-10-26T09:03:30;100085.50;;;4.99;81.23
53011;BME280;42803;55.762;38.084;2022-10-26T09:06:24;100085.94;;;4.95;82.36
53011;BME280;42803;55.762;38.084;2022-10-26T09:09:16;100076.59;;;5.29;83.53
53011;BME280;42803;55.762;38.084;2022-10-26T09:12:06;100075.38;;;5.25;81.69
53011;BME280;42803;55.762;38.084;2022-10-26T09:15:28;100073.78;;;5.34;81.98
53011;BME280;42803;55.762;38.084;2022-10-26T09:18:25;100072.63;;;5.73;80.89
53011;BME280;42803;55.762;38.084;2022-10-26T09:21:39;100074.81;;;6.10;77.32
53011;BME280;42803;55.762;38.084;2022-10-26T09:24:25;100073.97;;;6.27;79.36
53011;BME280;42803;55.762;38.084;2022-10-26T09:27:43;100072.09;;;6.17;78.23
53011;BME280;42803;55.762;38.084;2022-10-26T09:31:14;100078.50;;;6.21;76.66
53011;BME280;42803;55.762;38.084;2022-10-26T09:34:30;100075.66;;;5.93;76.51
53011;BME280;42803;55.762;38.084;2022-10-26T09:39:14;100063.22;;;6.66;76.01
53011;BME280;42803;55.762;38.084;2022-10-26T09:42:30;100071.47;;;6.79;74.04
53011;BME280;42803;55.762;38.084;2022-10-26T09:45:38;100067.84;;;7.03;72.74
53011;BME280;42803;55.762;38.084;2022-10-26T09:48:21;100071.03;;;7.09;72.90
53011;BME280;42803;55.762;38.084;2022-10-26T09:51:04;100061.56;;;7.01;70.89
53011;BME280;42803;55.762;38.084;2022-10-26T09:53:38;100066.63;;;7.25;73.47
53011;BME280;42803;55.762;38.084;2022-10-26T09:56:17;100064.16;;;7.09;70.97
53011;BME280;42803;55.762;38.084;2022-10-26T09:58:53;100069.66;;;6.95;71.02
53011;BME280;42803;55.762;38.084;2022-10-26T10:01:41;100068.91;;;7.14;72.26
53011;BME280;42803;55.762;38.084;2022-10-26T10:08:29;100075.22;;;6.39;73.43
53011;BME280;42803;55.762;38.084;2022-10-26T10:11:16;100069.00;;;6.04;73.23
53011;BME280;42803;55.762;38.084;2022-10-26T10:14:38;100078.03;;;6.07;73.25
53011;BME280;42803;55.762;38.084;2022-10-26T10:17:20;100062.72;;;5.93;73.14
53011;BME280;42803;55.762;38.084;2022-10-26T10:20:17;100076.31;;;5.99;73.55
53011;BME280;42803;55.762;38.084;2022-10-26T10:25:44;100066.16;;;5.85;75.28
53011;BME280;42803;55.762;38.084;2022-10-26T10:28:23;100074.06;;;5.86;75.41
53011;BME280;42803;55.762;38.084;2022-10-26T10:30:54;100074.50;;;5.82;79.12
53011;BME280;42803;55.762;38.084;2022-10-26T10:33:37;100072.03;;;5.75;76.18
53011;BME280;42803;55.762;38.084;2022-10-26T10:36:15;100064.53;;;5.70;75.11
53011;BME280;42803;55.762;38.084;2022-10-26T10:38:47;100060.34;;;5.54;75.80
53011;BME280;42803;55.762;38.084;2022-10-26T10:41:24;100076.09;;;5.40;76.53
53011;BME280;42803;55.762;38.084;2022-10-26T10:44:04;100066.91;;;5.35;75.98
53011;BME280;42803;55.762;38.084;2022-10-26T10:46:36;100078.97;;;5.19;77.41
53011;BME280;42803;55.762;38.084;2022-10-26T10:49:19;100079.81;;;5.10;77.17
53011;BME280;42803;55.762;38.084;2022-10-26T10:51:54;100078.97;;;5.19;77.85
53011;BME280;42803;55.762;38.084;2022-10-26T10:54:29;100073.00;;;5.35;77.50
53011;BME280;42803;55.762;38.084;2022-10-26T10:57:28;100069.41;;;5.42;75.45
53011;BME280;42803;55.762;38.084;2022-10-26T11:00:12;100079.53;;;5.56;75.18
53011;BME280;42803;55.762;38.084;2022-10-26T11:03:12;100081.16;;;5.47;76.35
53011;BME280;42803;55.762;38.084;2022-10-26T11:06:44;100077.59;;;5.38;75.60
53011;BME280;42803;55.762;38.084;2022-10-26T11:09:21;100078.81;;;5.42;75.86
53011;BME280;42803;55.762;38.084;2022-10-26T11:11:57;100080.50;;;5.41;76.37
53011;BME280;42803;55.762;38.084;2022-10-26T11:14:33;100078.63;;;5.56;75.62
53011;BME280;42803;55.762;38.084;2022-10-26T11:17:12;100078.66;;;5.40;75.90
53011;BME280;42803;55.762;38.084;2022-10-26T11:19:47;100072.28;;;5.21;75.38
53011;BME280;42803;55.762;38.084;2022-10-26T11:22:24;100081.88;;;5.22;75.90
53011;BME280;42803;55.762;38.084;2022-10-26T11:25:02;100077.19;;;5.26;76.63
53011;BME280;42803;55.762;38.084;2022-10-26T12:44:35;100049.59;;;4.07;82.18
53011;BME280;42803;55.762;38.084;2022-10-26T12:51:17;100052.16;;;3.91;82.56
53011;BME280;42803;55.762;38.084;2022-10-26T12:54:45;100047.81;;;3.83;82.76
53011;BME280;42803;55.762;38.084;2022-10-26T15:42:57;100071.25;;;1.14;95.34
53011;BME280;42803;55.762;38.084;2022-10-26T15:46:45;100066.88;;;1.13;95.64
53011;BME280;42803;55.762;38.084;2022-10-26T15:49:27;100062.28;;;1.11;95.67
53011;BME280;42803;55.762;38.084;2022-10-26T15:52:13;100059.50;;;1.09;95.89
53011;BME280;42803;55.762;38.084;2022-10-26T15:54:46;100062.28;;;1.11;95.77
53011;BME280;42803;55.762;38.084;2022-10-26T15:57:16;100062.97;;;1.03;95.98
53011;BME280;42803;55.762;38.084;2022-10-26T15:59:49;100065.00;;;0.98;96.11
53011;BME280;42803;55.762;38.084;2022-10-26T16:02:19;100063.69;;;0.94;96.54
53011;BME280;42803;55.762;38.084;2022-10-26T16:04:48;100067.53;;;0.91;96.62
53011;BME280;42803;55.762;38.084;2022-10-26T16:07:17;100064.25;;;0.92;97.15
53011;BME280;42803;55.762;38.084;2022-10-26T16:09:48;100068.09;;;0.88;97.15
53011;BME280;42803;55.762;38.084;2022-10-26T16:12:17;100061.66;;;0.85;97.19
53011;BME280;42803;55.762;38.084;2022-10-26T16:15:01;100063.09;;;0.83;97.05
53011;BME280;42803;55.762;38.084;2022-10-26T16:17:46;100062.34;;;0.84;97.23
53011;BME280;42803;55.762;38.084;2022-10-26T16:20:25;100057.97;;;0.83;97.26
53011;BME280;42803;55.762;38.084;2022-10-26T16:23:13;100063.47;;;0.86;97.50
53011;BME280;42803;55.762;38.084;2022-10-26T16:25:45;100060.19;;;0.87;97.63
53011;BME280;42803;55.762;38.084;2022-10-26T16:28:38;100063.16;;;0.97;97.85
53011;BME280;42803;55.762;38.084;2022-10-26T16:31:19;100057.84;;;1.10;97.74
53011;BME280;42803;55.762;38.084;2022-10-26T16:33:49;100051.81;;;1.09;97.40
53011;BME280;42803;55.762;38.084;2022-10-26T16:36:27;100049.25;;;1.24;97.66
53011;BME280;42803;55.762;38.084;2022-10-26T16:39:19;100055.34;;;1.38;97.76
53011;BME280;42803;55.762;38.084;2022-10-26T16:41:55;100055.50;;;1.33;97.59
53011;BME280;42803;55.762;38.084;2022-10-26T16:44:55;100048.16;;;1.29;96.66
53011;BME280;42803;55.762;38.084;2022-10-26T16:47:38;100052.16;;;1.05;95.94
53011;BME280;42803;55.762;38.084;2022-10-26T16:50:15;100049.53;;;0.91;96.33
53011;BME280;42803;55.762;38.084;2022-10-26T16:52:48;100049.72;;;0.85;96.38
53011;BME280;42803;55.762;38.084;2022-10-26T16:55:21;100051.00;;;0.82;96.75
53011;BME280;42803;55.762;38.084;2022-10-26T16:57:51;100047.31;;;0.80;97.09
53011;BME280;42803;55.762;38.084;2022-10-26T17:00:22;100046.91;;;0.69;97.22
53011;BME280;42803;55.762;38.084;2022-10-26T17:03:08;100046.88;;;0.62;97.18
53011;BME280;42803;55.762;38.084;2022-10-26T17:05:40;100048.72;;;0.63;97.76
53011;BME280;42803;55.762;38.084;2022-10-26T17:08:09;100045.06;;;0.61;98.06
53011;BME280;42803;55.762;38.084;2022-10-26T17:10:39;100044.28;;;0.55;97.86
53011;BME280;42803;55.762;38.084;2022-10-26T17:13:13;100040.78;;;0.55;98.17
53011;BME280;42803;55.762;38.084;2022-10-26T17:15:52;100042.97;;;0.52;98.40
53011;BME280;42803;55.762;38.084;2022-10-26T17:18:28;100041.69;;;0.48;98.62
53011;BME280;42803;55.762;38.084;2022-10-26T17:21:05;100044.22;;;0.41;98.87
53011;BME280;42803;55.762;38.084;2022-10-26T17:23:48;100040.91;;;0.42;99.25
53011;BME280;42803;55.762;38.084;2022-10-26T17:26:18;100040.00;;;0.41;99.40
53011;BME280;42803;55.762;38.084;2022-10-26T17:28:52;100037.63;;;0.43;99.42
53011;BME280;42803;55.762;38.084;2022-10-26T17:31:24;100042.72;;;0.36;99.52
53011;BME280;42803;55.762;38.084;2022-10-26T17:33:58;100040.84;;;0.28;100.00
53011;BME280;42803;55.762;38.084;2022-10-26T17:36:30;100033.84;;;0.27;100.00
53011;BME280;42803;55.762;38.084;2022-10-26T17:39:01;100030.59;;;0.28;100.00
53011;BME280;42803;55.762;38.084;2022-10-26T17:41:34;100039.94;;;0.27;100.00
53011;BME280;42803;55.762;38.084;2022-10-26T17:44:07;100033.09;;;0.20;100.00
53011;BME280;42803;55.762;38.084;2022-10-26T17:46:38;100035.31;;;0.24;100.00
53011;BME280;42803;55.762;38.084;2022-10-26T17:49:14;100028.72;;;0.19;100.00
53011;BME280;42803;55.762;38.084;2022-10-26T17:52:20;100030.19;;;0.24;100.00
53011;BME280;42803;55.762;38.084;2022-10-26T17:55:13;100029.06;;;0.22;100.00
53011;BME280;42803;55.762;38.084;2022-10-26T17:57:45;100033.84;;;0.19;100.00
53011;BME280;42803;55.762;38.084;2022-10-26T18:00:18;100031.63;;;0.22;100.00
53011;BME280;42803;55.762;38.084;2022-10-26T18:02:48;100029.28;;;0.24;100.00
53011;BME280;42803;55.762;38.084;2022-10-26T18:05:23;100030.53;;;0.20;100.00
53011;BME280;42803;55.762;38.084;2022-10-26T18:08:08;100031.97;;;0.18;100.00
53011;BME280;42803;55.762;38.084;2022-10-26T18:10:45;100027.97;;;0.20;100.00
53011;BME280;42803;55.762;38.084;2022-10-26T18:13:16;100042.97;;;0.17;100.00
53011;BME280;42803;55.762;38.084;2022-10-26T18:15:46;100033.81;;;0.12;100.00
53011;BME280;42803;55.762;38.084;2022-10-26T18:18:16;100043.66;;;0.09;100.00
53011;BME280;42803;55.762;38.084;2022-10-26T18:21:03;100038.72;;;0.11;100.00
53011;BME280;42803;55.762;38.084;2022-10-26T18:23:38;100039.97;;;0.07;100.00